Time;durP1;ratioP1;P1;durP2;ratioP2;P2;SDS_P1;SDS_P2;PMS_P1;PMS_P2;Temp;Humidity;BMP_temperature;BMP_pressure;BME280_temperature;BME280_humidity;BME280_pressure;Samples;Min_cycle;Max_cycle;Signal;HPM_P1;HPM_P2
2022/08/30 00:01:05;;;;;;;7.05;2.40;;;16.90;97.00;;;;;;5058981;28;20041;-49
2022/08/30 00:03:32;;;;;;;7.38;2.20;;;16.90;97.10;;;;;;5065465;28;20499;-48
2022/08/30 00:05:59;;;;;;;9.43;2.22;;;16.90;97.10;;;;;;5076388;28;20131;-47
2022/08/30 00:08:26;;;;;;;5.05;1.95;;;16.90;97.10;;;;;;5075570;28;20098;-51
2022/08/30 00:10:53;;;;;;;8.25;2.33;;;16.80;97.20;;;;;;5076716;28;20040;-49
2022/08/30 00:13:20;;;;;;;6.53;2.00;;;16.80;97.30;;;;;;5075487;28;20049;-49
2022/08/30 00:15:47;;;;;;;6.35;1.92;;;16.80;97.30;;;;;;5075269;28;20411;-47
2022/08/30 00:18:14;;;;;;;8.50;1.95;;;16.70;97.40;;;;;;5091182;28;20047;-49
2022/08/30 00:20:41;;;;;;;7.35;1.90;;;16.60;97.50;;;;;;5096559;28;20044;-47
2022/08/30 00:23:08;;;;;;;5.50;2.00;;;16.60;97.50;;;;;;5095363;28;20044;-47
2022/08/30 00:25:34;;;;;;;5.47;2.00;;;16.60;97.60;;;;;;5081479;28;20036;-46
2022/08/30 00:28:01;;;;;;;3.90;1.50;;;16.60;97.60;;;;;;5075252;28;20048;-48
2022/08/30 00:30:28;;;;;;;7.38;2.00;;;16.60;97.70;;;;;;5076003;28;20040;-49
2022/08/30 00:32:54;;;;;;;7.72;2.00;;;16.50;97.70;;;;;;5075963;28;20044;-46
2022/08/30 00:35:21;;;;;;;8.23;2.45;;;16.50;97.90;;;;;;5085227;28;20044;-49
2022/08/30 00:37:49;;;;;;;5.32;2.08;;;16.40;97.90;;;;;;5096579;28;20040;-49
2022/08/30 00:40:16;;;;;;;5.35;2.08;;;16.50;97.90;;;;;;5096657;28;20044;-48
2022/08/30 00:42:43;;;;;;;5.88;2.20;;;16.40;97.90;;;;;;5064823;28;20041;-47
2022/08/30 00:45:16;;;;;;;6.25;1.80;;;16.50;98.10;;;;;;5056153;28;20045;-49
2022/08/30 00:47:42;;;;;;;4.38;1.70;;;16.40;98.10;;;;;;5067418;28;20052;-48
2022/08/30 00:50:09;;;;;;;6.43;2.10;;;16.40;98.00;;;;;;5059228;28;20037;-48
2022/08/30 00:52:36;;;;;;;6.63;1.90;;;16.40;98.20;;;;;;5075908;28;20040;-47
2022/08/30 00:55:03;;;;;;;6.15;1.80;;;16.40;98.10;;;;;;5067736;28;20495;-49
2022/08/30 00:57:29;;;;;;;6.35;2.45;;;16.40;98.20;;;;;;5056011;28;20033;-51
2022/08/30 00:59:56;;;;;;;4.95;1.85;;;16.30;98.10;;;;;;5059638;28;20044;-47
2022/08/30 01:02:23;;;;;;;6.28;1.90;;;16.30;98.10;;;;;;5075446;28;20454;-51
2022/08/30 01:04:54;;;;;;;6.07;2.10;;;16.30;98.20;;;;;;5068017;28;20064;-49
2022/08/30 01:07:21;;;;;;;4.82;1.85;;;16.30;98.40;;;;;;5054124;28;20119;-46
2022/08/30 01:09:47;;;;;;;5.20;2.00;;;16.20;98.40;;;;;;5058148;28;20084;-50
2022/08/30 01:12:14;;;;;;;6.82;1.90;;;16.20;98.40;;;;;;5075770;28;20106;-47
2022/08/30 01:14:42;;;;;;;6.57;1.80;;;16.20;98.40;;;;;;5075581;28;20048;-47
2022/08/30 01:17:10;;;;;;;6.80;2.05;;;16.20;98.40;;;;;;5064993;28;20045;-51
2022/08/30 01:19:38;;;;;;;9.60;2.13;;;16.20;98.40;;;;;;5075504;28;20416;-49
2022/08/30 01:22:05;;;;;;;6.90;2.03;;;16.20;98.50;;;;;;5075440;28;20045;-48
2022/08/30 01:24:32;;;;;;;7.25;2.13;;;16.20;98.50;;;;;;5075156;28;20470;-49
2022/08/30 01:26:58;;;;;;;5.55;2.00;;;16.20;98.70;;;;;;5075721;28;20044;-51
2022/08/30 01:29:25;;;;;;;7.28;2.38;;;16.10;98.70;;;;;;5069873;28;20044;-51
2022/08/30 01:31:52;;;;;;;7.70;2.42;;;16.10;98.60;;;;;;5065547;28;20049;-53
2022/08/30 01:34:19;;;;;;;5.70;2.05;;;16.10;98.70;;;;;;5067446;28;20045;-50
2022/08/30 01:36:46;;;;;;;6.65;1.90;;;16.10;98.70;;;;;;5066168;28;20041;-53
2022/08/30 01:39:13;;;;;;;3.40;1.83;;;16.10;98.80;;;;;;5069065;28;20036;-52
2022/08/30 01:41:40;;;;;;;3.75;1.88;;;16.10;98.80;;;;;;5059154;28;20098;-50
2022/08/30 01:44:07;;;;;;;5.05;2.00;;;16.10;98.80;;;;;;5054742;28;20415;-51
2022/08/30 01:46:36;;;;;;;10.55;2.17;;;16.10;98.80;;;;;;5059067;28;20476;-49
2022/08/30 01:49:03;;;;;;;7.43;2.15;;;16.10;98.90;;;;;;5071152;28;20435;-48
2022/08/30 01:51:30;;;;;;;4.60;1.70;;;16.10;98.90;;;;;;5069626;28;20190;-51
2022/08/30 01:53:57;;;;;;;6.20;2.15;;;16.10;98.90;;;;;;5054760;28;20045;-49
2022/08/30 01:56:23;;;;;;;5.43;1.83;;;16.10;98.90;;;;;;5068059;28;20472;-50
2022/08/30 01:58:50;;;;;;;5.63;1.83;;;16.10;98.90;;;;;;5072834;28;20040;-51
2022/08/30 02:01:18;;;;;;;10.18;2.25;;;16.10;99.00;;;;;;5062273;28;20487;-48
2022/08/30 02:03:45;;;;;;;5.82;1.83;;;16.00;99.00;;;;;;5054286;28;20041;-50
2022/08/30 02:06:12;;;;;;;7.28;1.90;;;16.00;99.00;;;;;;5056499;28;20573;-53
2022/08/30 02:08:41;;;;;;;6.97;1.90;;;16.00;99.10;;;;;;5070011;28;20048;-53
2022/08/30 02:11:08;;;;;;;7.32;2.03;;;16.00;99.20;;;;;;5054802;28;20041;-49
2022/08/30 02:13:36;;;;;;;6.78;2.10;;;16.00;99.20;;;;;;5062577;28;20044;-52
2022/08/30 02:16:03;;;;;;;7.57;2.00;;;15.90;99.20;;;;;;5071015;28;20457;-52
2022/08/30 02:18:29;;;;;;;6.65;2.22;;;15.90;99.20;;;;;;5064316;28;20033;-48
2022/08/30 02:20:56;;;;;;;7.88;2.10;;;15.90;99.30;;;;;;5057130;28;20049;-50
2022/08/30 02:23:23;;;;;;;6.40;1.92;;;15.90;99.30;;;;;;5054383;28;20453;-49
2022/08/30 02:25:50;;;;;;;4.72;1.92;;;15.90;99.30;;;;;;5059017;28;20048;-47
2022/08/30 02:28:18;;;;;;;6.15;1.80;;;15.90;99.40;;;;;;5054229;28;20048;-50
2022/08/30 02:30:45;;;;;;;7.10;2.05;;;15.90;99.40;;;;;;5071175;28;20036;-49
2022/08/30 02:33:12;;;;;;;4.43;2.13;;;15.90;99.40;;;;;;5066366;28;20091;-49
2022/08/30 02:35:39;;;;;;;6.80;1.90;;;15.90;99.30;;;;;;5056835;28;20092;-52
2022/08/30 02:38:05;;;;;;;5.32;1.80;;;15.90;99.40;;;;;;5064092;28;20040;-50
2022/08/30 02:40:32;;;;;;;6.07;1.83;;;15.90;99.40;;;;;;5059297;28;20051;-53
2022/08/30 02:42:59;;;;;;;8.05;2.10;;;15.90;99.40;;;;;;5074050;28;20043;-50
2022/08/30 02:45:26;;;;;;;9.52;2.10;;;15.80;99.50;;;;;;5077749;28;20487;-47
2022/08/30 02:47:55;;;;;;;8.27;2.10;;;15.80;99.60;;;;;;5078228;28;20044;-48
2022/08/30 02:50:22;;;;;;;6.40;1.90;;;15.80;99.60;;;;;;5063263;28;20533;-49
2022/08/30 02:52:48;;;;;;;6.60;1.92;;;15.70;99.70;;;;;;5064379;28;20045;-52
2022/08/30 02:55:15;;;;;;;6.20;1.77;;;15.70;99.70;;;;;;5069628;28;20055;-50
2022/08/30 02:57:43;;;;;;;8.25;1.92;;;15.70;99.90;;;;;;5073829;28;20032;-47
2022/08/30 03:00:10;;;;;;;7.05;1.98;;;15.60;99.90;;;;;;5070506;28;20045;-46
2022/08/30 03:02:37;;;;;;;5.32;2.15;;;15.60;99.90;;;;;;5054869;28;20045;-47
2022/08/30 03:05:04;;;;;;;6.43;2.10;;;15.60;99.90;;;;;;5066336;28;20074;-49
2022/08/30 03:07:30;;;;;;;6.80;2.00;;;15.50;99.90;;;;;;5055247;28;20430;-49
2022/08/30 03:09:57;;;;;;;7.75;2.10;;;15.50;99.90;;;;;;5072016;28;20037;-46
2022/08/30 03:12:24;;;;;;;9.05;1.90;;;15.50;99.90;;;;;;5071613;28;20047;-48
2022/08/30 03:14:51;;;;;;;6.13;2.03;;;15.50;99.90;;;;;;5063594;28;20044;-50
2022/08/30 03:17:17;;;;;;;5.97;2.00;;;15.50;99.90;;;;;;5070367;28;20048;-46
2022/08/30 03:19:44;;;;;;;8.25;2.53;;;15.50;99.90;;;;;;5052765;28;20044;-48
2022/08/30 03:22:11;;;;;;;6.22;1.73;;;15.40;99.90;;;;;;5052340;28;20045;-48
2022/08/30 03:24:39;;;;;;;7.18;2.00;;;15.40;99.90;;;;;;5070945;28;20063;-51
2022/08/30 03:27:06;;;;;;;5.07;1.75;;;15.40;99.90;;;;;;5061090;28;20044;-51
2022/08/30 03:29:33;;;;;;;8.45;2.00;;;15.40;99.90;;;;;;5057324;28;20418;-46
2022/08/30 03:32:00;;;;;;;10.25;2.03;;;15.40;99.90;;;;;;5072843;28;20092;-50
2022/08/30 03:34:27;;;;;;;8.45;2.00;;;15.40;99.90;;;;;;5059696;28;20189;-53
2022/08/30 03:36:53;;;;;;;5.45;2.00;;;15.30;99.90;;;;;;5057697;28;20045;-48
2022/08/30 03:39:20;;;;;;;6.22;2.10;;;15.30;99.90;;;;;;5061263;28;20095;-48
2022/08/30 03:41:47;;;;;;;8.32;2.67;;;15.20;99.90;;;;;;5075622;28;20529;-49
2022/08/30 03:44:14;;;;;;;8.80;2.10;;;15.20;99.90;;;;;;5069439;28;20435;-51
2022/08/30 03:46:40;;;;;;;8.88;2.47;;;15.10;99.90;;;;;;5059828;28;20422;-50
2022/08/30 03:49:07;;;;;;;7.90;2.15;;;15.10;99.90;;;;;;5069532;28;20515;-49
2022/08/30 03:51:34;;;;;;;7.68;2.20;;;15.10;99.90;;;;;;5060493;28;20044;-50
2022/08/30 03:54:01;;;;;;;7.57;2.35;;;15.10;99.90;;;;;;5057451;28;20052;-52
2022/08/30 03:56:28;;;;;;;5.65;1.98;;;15.10;99.90;;;;;;5057534;28;20036;-50
2022/08/30 03:58:55;;;;;;;8.00;1.95;;;15.10;99.90;;;;;;5057370;28;20045;-46
2022/08/30 04:01:21;;;;;;;7.53;2.25;;;15.00;99.90;;;;;;5067061;28;20052;-52
2022/08/30 04:03:48;;;;;;;7.20;2.10;;;15.00;99.90;;;;;;5059979;28;20053;-50
2022/08/30 04:06:15;;;;;;;7.18;2.05;;;15.00;99.90;;;;;;5067282;28;20053;-48
2022/08/30 04:08:43;;;;;;;8.10;1.92;;;15.00;99.90;;;;;;5057060;28;20052;-49
2022/08/30 04:11:11;;;;;;;7.72;2.58;;;14.90;99.90;;;;;;5056989;28;20041;-54
2022/08/30 04:13:37;;;;;;;8.63;2.08;;;15.00;99.90;;;;;;5066621;28;20503;-49
2022/08/30 04:16:04;;;;;;;6.15;1.98;;;14.90;99.90;;;;;;5074736;28;20044;-50
2022/08/30 04:18:31;;;;;;;7.05;2.17;;;14.90;99.90;;;;;;5058078;28;20115;-49
2022/08/30 04:20:58;;;;;;;6.80;2.20;;;14.90;99.90;;;;;;5070989;28;20395;-48
2022/08/30 04:23:24;;;;;;;7.22;2.30;;;14.90;99.90;;;;;;5057273;28;20037;-49
2022/08/30 04:25:51;;;;;;;8.45;2.45;;;14.90;99.90;;;;;;5056612;28;20094;-51
2022/08/30 04:28:18;;;;;;;8.18;2.30;;;14.90;99.90;;;;;;5056541;28;20044;-49
2022/08/30 04:30:45;;;;;;;7.15;2.10;;;14.90;99.90;;;;;;5056013;28;20480;-49
2022/08/30 04:33:12;;;;;;;7.65;2.38;;;14.90;99.90;;;;;;5057653;28;20041;-51
2022/08/30 04:35:38;;;;;;;7.03;1.80;;;14.80;99.90;;;;;;5066208;28;20040;-48
2022/08/30 04:38:05;;;;;;;5.45;1.90;;;14.80;99.90;;;;;;5068253;28;20082;-49
2022/08/30 04:40:32;;;;;;;7.20;2.33;;;14.80;99.90;;;;;;5067461;28;20154;-51
2022/08/30 04:42:59;;;;;;;8.30;2.13;;;14.80;99.90;;;;;;5056809;28;20045;-51
2022/08/30 04:45:25;;;;;;;9.55;2.65;;;14.80;99.90;;;;;;5057223;28;20048;-50
2022/08/30 04:47:53;;;;;;;7.30;2.47;;;14.80;99.90;;;;;;5072771;28;20043;-48
2022/08/30 04:50:22;;;;;;;7.22;2.13;;;14.80;99.90;;;;;;5066083;28;20067;-49
2022/08/30 04:52:49;;;;;;;8.13;2.10;;;14.80;99.90;;;;;;5076953;28;20040;-48
2022/08/30 04:55:16;;;;;;;5.63;2.70;;;14.80;99.90;;;;;;5081966;28;20051;-49
2022/08/30 04:57:46;;;;;;;9.23;2.20;;;14.80;99.90;;;;;;5070353;28;20037;-47
2022/08/30 05:00:13;;;;;;;7.03;2.20;;;14.90;99.90;;;;;;5055952;28;20044;-48
2022/08/30 05:02:39;;;;;;;9.85;2.45;;;14.90;99.90;;;;;;5056864;28;20041;-50
2022/08/30 05:07:52;;;;;;;10.55;2.33;;;15.00;99.90;;;;;;5054503;28;20045;-47
2022/08/30 05:10:19;;;;;;;6.47;1.73;;;15.10;99.90;;;;;;5054534;28;20037;-47
2022/08/30 05:12:45;;;;;;;7.00;1.90;;;15.10;99.90;;;;;;5055397;28;20099;-48
2022/08/30 05:15:12;;;;;;;8.52;2.20;;;15.10;99.90;;;;;;5075268;28;20101;-49
2022/08/30 05:17:39;;;;;;;8.25;2.40;;;15.20;99.90;;;;;;5071030;28;20028;-50
2022/08/30 05:20:06;;;;;;;8.32;2.20;;;15.20;99.90;;;;;;5055861;28;20527;-50
2022/08/30 05:22:32;;;;;;;10.30;2.17;;;15.20;99.90;;;;;;5056367;28;20033;-52
2022/08/30 05:24:59;;;;;;;8.07;2.10;;;15.30;99.90;;;;;;5060145;28;20037;-51
2022/08/30 05:27:26;;;;;;;8.30;2.10;;;15.40;99.90;;;;;;5060251;28;20059;-47
2022/08/30 05:29:53;;;;;;;8.73;2.20;;;15.30;99.90;;;;;;5067997;28;20487;-47
2022/08/30 05:32:20;;;;;;;6.95;2.30;;;15.40;99.90;;;;;;5059708;28;20045;-49
2022/08/30 05:34:48;;;;;;;8.05;2.30;;;15.50;99.90;;;;;;5055528;28;20048;-51
2022/08/30 05:37:16;;;;;;;8.63;2.15;;;15.50;99.90;;;;;;5075621;28;20044;-47
2022/08/30 05:39:43;;;;;;;11.13;2.60;;;15.50;99.90;;;;;;5074872;28;20044;-49
2022/08/30 05:42:17;;;;;;;8.55;2.67;;;15.60;99.90;;;;;;5074644;28;20048;-46
2022/08/30 05:44:44;;;;;;;8.43;2.25;;;15.60;99.90;;;;;;5080509;28;20049;-52
2022/08/30 05:47:10;;;;;;;5.82;2.15;;;15.60;99.90;;;;;;5055486;28;20044;-49
2022/08/30 05:49:37;;;;;;;9.10;2.35;;;15.60;99.90;;;;;;5063598;28;20089;-48
2022/08/30 05:52:04;;;;;;;8.80;2.42;;;15.70;99.90;;;;;;5072435;28;20074;-48
2022/08/30 05:54:31;;;;;;;8.23;2.00;;;15.70;99.90;;;;;;5055473;28;20435;-48
2022/08/30 05:56:57;;;;;;;8.70;2.72;;;15.70;99.90;;;;;;5063493;28;20045;-47
2022/08/30 05:59:24;;;;;;;7.97;2.08;;;15.70;99.90;;;;;;5065160;28;20086;-48
2022/08/30 06:01:51;;;;;;;7.15;1.90;;;15.70;99.90;;;;;;5063819;28;20055;-51
2022/08/30 06:04:18;;;;;;;5.80;1.80;;;15.80;99.90;;;;;;5060361;28;20044;-50
2022/08/30 06:06:44;;;;;;;10.52;2.53;;;15.80;99.90;;;;;;5094613;28;20052;-50
2022/08/30 06:09:11;;;;;;;8.95;2.60;;;15.80;99.90;;;;;;5077684;28;20570;-49
2022/08/30 06:11:38;;;;;;;7.72;2.00;;;15.80;99.90;;;;;;5091977;28;20032;-52
2022/08/30 06:14:05;;;;;;;10.10;2.30;;;15.80;99.90;;;;;;5093328;28;20047;-47
2022/08/30 06:16:31;;;;;;;8.27;2.22;;;15.90;99.90;;;;;;5084112;28;20092;-47
2022/08/30 06:18:59;;;;;;;6.93;2.10;;;15.90;99.90;;;;;;5082608;28;20375;-47
2022/08/30 06:21:25;;;;;;;10.60;2.28;;;15.90;99.90;;;;;;5075648;28;20076;-47
2022/08/30 06:23:53;;;;;;;9.70;2.70;;;15.90;99.90;;;;;;5074181;28;20048;-48
2022/08/30 06:26:19;;;;;;;8.10;2.22;;;15.90;99.90;;;;;;5094444;28;20040;-48
2022/08/30 06:28:46;;;;;;;8.50;2.00;;;15.90;99.90;;;;;;5093521;28;20050;-46
2022/08/30 06:31:13;;;;;;;8.95;2.33;;;16.00;99.90;;;;;;5094636;28;20040;-48
2022/08/30 06:33:39;;;;;;;10.60;2.50;;;16.00;99.90;;;;;;5088241;28;20498;-47
2022/08/30 06:36:06;;;;;;;11.52;2.55;;;16.00;99.90;;;;;;5073704;28;20074;-47
2022/08/30 06:38:33;;;;;;;8.30;2.42;;;16.10;99.90;;;;;;5068490;28;20048;-49
2022/08/30 06:41:00;;;;;;;11.30;2.15;;;16.10;99.90;;;;;;5074462;28;20047;-52
2022/08/30 06:43:27;;;;;;;7.60;2.20;;;16.10;99.90;;;;;;5066249;28;20431;-52
2022/08/30 06:45:55;;;;;;;7.63;2.08;;;16.10;99.90;;;;;;5058541;28;20045;-51
2022/08/30 06:48:21;;;;;;;11.07;2.10;;;16.20;99.90;;;;;;5053362;28;20076;-49
2022/08/30 06:50:48;;;;;;;13.80;2.30;;;16.20;99.90;;;;;;5069540;28;20060;-47
2022/08/30 06:53:15;;;;;;;9.63;2.33;;;16.20;99.90;;;;;;5057534;28;20047;-49
2022/08/30 06:55:43;;;;;;;6.72;2.47;;;16.30;99.90;;;;;;5059359;28;20127;-49
2022/08/30 06:58:09;;;;;;;8.70;2.28;;;16.40;99.90;;;;;;5056479;28;20045;-50
2022/08/30 07:00:36;;;;;;;10.93;2.47;;;16.40;99.90;;;;;;5068999;28;20044;-48
2022/08/30 07:03:03;;;;;;;9.10;2.50;;;16.50;99.90;;;;;;5053903;28;20535;-47
2022/08/30 07:05:30;;;;;;;7.85;2.20;;;16.50;99.90;;;;;;5061042;28;20403;-48
2022/08/30 07:07:57;;;;;;;9.18;2.30;;;16.60;99.90;;;;;;5055781;28;20488;-48
2022/08/30 07:10:23;;;;;;;10.60;2.28;;;16.70;99.90;;;;;;5055376;28;20491;-47
2022/08/30 07:12:50;;;;;;;10.98;2.22;;;16.70;99.90;;;;;;5059247;28;20419;-47
2022/08/30 07:15:21;;;;;;;7.95;2.30;;;16.70;99.90;;;;;;5059923;28;20454;-48
2022/08/30 07:20:34;;;;;;;;;;;16.70;99.90;;;;;;5059281;28;20048;-48
2022/08/30 07:23:06;;;;;;;10.45;2.25;;;16.80;99.90;;;;;;5055285;28;20035;-50
2022/08/30 07:25:33;;;;;;;11.05;2.45;;;16.80;99.90;;;;;;5061030;28;20048;-47
2022/08/30 07:27:59;;;;;;;9.63;2.08;;;16.90;99.90;;;;;;5058868;28;20037;-49
2022/08/30 07:30:26;;;;;;;8.40;2.42;;;17.10;99.90;;;;;;5053328;28;20037;-50
2022/08/30 07:32:53;;;;;;;12.05;2.83;;;17.10;99.90;;;;;;5051832;28;20041;-52
2022/08/30 07:35:20;;;;;;;11.30;2.30;;;17.20;99.90;;;;;;5059650;28;20039;-50
2022/08/30 07:37:46;;;;;;;9.32;2.22;;;17.20;99.90;;;;;;5054774;28;20071;-49
2022/08/30 07:40:13;;;;;;;12.25;2.30;;;17.30;99.90;;;;;;5063092;28;20056;-49
2022/08/30 07:42:40;;;;;;;11.15;2.65;;;17.30;99.90;;;;;;5055060;28;20041;-52
2022/08/30 07:45:07;;;;;;;10.70;2.33;;;17.40;99.90;;;;;;5075179;28;20032;-50
2022/08/30 07:47:33;;;;;;;12.02;2.42;;;17.40;99.90;;;;;;5052779;28;20075;-49
2022/08/30 07:50:00;;;;;;;13.07;2.47;;;17.50;99.90;;;;;;5055720;28;20052;-47
2022/08/30 07:52:27;;;;;;;7.18;2.15;;;17.50;99.90;;;;;;5062759;28;20107;-49
2022/08/30 07:54:56;;;;;;;12.52;2.60;;;17.60;99.90;;;;;;5052377;28;20037;-52
2022/08/30 07:57:23;;;;;;;7.53;2.33;;;17.60;99.90;;;;;;5055418;28;20048;-49
2022/08/30 07:59:50;;;;;;;7.53;2.30;;;17.60;99.90;;;;;;5079532;28;20491;-50
2022/08/30 08:02:16;;;;;;;6.63;2.20;;;17.70;99.90;;;;;;5057167;28;20045;-47
2022/08/30 08:04:43;;;;;;;7.38;2.17;;;17.80;99.90;;;;;;5071265;28;20063;-49
2022/08/30 08:07:10;;;;;;;10.48;2.40;;;17.90;99.90;;;;;;5061724;28;20391;-49
2022/08/30 08:09:37;;;;;;;12.20;2.78;;;18.00;99.90;;;;;;5056511;28;20041;-48
2022/08/30 08:12:04;;;;;;;13.10;2.47;;;18.00;99.90;;;;;;5052322;28;20037;-47
2022/08/30 08:14:30;;;;;;;10.45;2.88;;;18.00;99.90;;;;;;5071603;28;20076;-48
2022/08/30 08:16:57;;;;;;;8.02;2.17;;;18.10;99.90;;;;;;5070661;28;20037;-46
2022/08/30 08:19:24;;;;;;;8.10;2.47;;;18.30;99.90;;;;;;5056405;28;20041;-52
2022/08/30 08:21:55;;;;;;;10.13;2.92;;;18.50;99.90;;;;;;5065118;28;20116;-50
2022/08/30 08:24:42;;;;;;;13.45;2.53;;;18.50;99.90;;;;;;5053633;28;20045;-48
2022/08/30 08:27:09;;;;;;;8.93;2.40;;;18.60;99.90;;;;;;5061643;28;20037;-49
2022/08/30 08:29:35;;;;;;;9.82;2.33;;;18.60;99.90;;;;;;5065507;28;20548;-48
2022/08/30 08:32:02;;;;;;;11.32;2.63;;;18.60;99.90;;;;;;5056918;28;20041;-53
2022/08/30 08:34:29;;;;;;;5.85;2.00;;;18.70;99.90;;;;;;5059990;28;20041;-50
2022/08/30 08:36:56;;;;;;;8.93;2.35;;;18.70;99.90;;;;;;5057458;28;20477;-53
2022/08/30 08:39:22;;;;;;;8.60;2.40;;;18.80;99.90;;;;;;5063580;28;20498;-48
2022/08/30 08:41:50;;;;;;;9.18;2.90;;;18.90;99.90;;;;;;5061314;28;20047;-50
2022/08/30 08:44:16;;;;;;;6.53;1.90;;;18.90;99.90;;;;;;5066399;28;20049;-48
2022/08/30 08:46:43;;;;;;;8.20;2.20;;;18.90;99.90;;;;;;5070054;28;20049;-47
2022/08/30 08:49:11;;;;;;;7.68;2.35;;;19.00;99.90;;;;;;5055468;28;20052;-49
2022/08/30 08:54:23;;;;;;;12.45;2.20;;;19.00;99.70;;;;;;5056211;28;20056;-49
2022/08/30 08:56:50;;;;;;;11.27;2.42;;;19.10;99.60;;;;;;5060353;28;20059;-51
2022/08/30 08:59:16;;;;;;;6.90;2.28;;;19.00;99.80;;;;;;5059134;28;20041;-49
2022/08/30 09:01:43;;;;;;;8.23;2.30;;;19.00;99.80;;;;;;5055082;28;20055;-50
2022/08/30 09:04:10;;;;;;;9.52;2.60;;;19.00;99.70;;;;;;5060922;28;20143;-48
2022/08/30 09:06:37;;;;;;;9.10;2.60;;;19.10;99.80;;;;;;5070547;28;20057;-48
2022/08/30 09:09:10;;;;;;;10.15;2.33;;;19.10;99.60;;;;;;5074640;28;20098;-51
2022/08/30 09:11:37;;;;;;;7.32;2.13;;;19.20;99.40;;;;;;5070215;28;20045;-46
2022/08/30 09:14:04;;;;;;;9.27;2.25;;;19.10;99.30;;;;;;5066945;28;20063;-48
2022/08/30 09:16:30;;;;;;;7.03;2.35;;;19.30;99.50;;;;;;5062276;28;20056;-48
2022/08/30 09:18:57;;;;;;;10.55;2.38;;;19.40;99.10;;;;;;5057249;28;20060;-48
2022/08/30 09:21:24;;;;;;;6.93;2.50;;;19.40;99.10;;;;;;5067291;28;20060;-47
2022/08/30 09:23:51;;;;;;;6.15;2.30;;;19.60;99.20;;;;;;5055029;28;20391;-47
2022/08/30 09:26:18;;;;;;;8.35;2.13;;;19.70;98.90;;;;;;5060252;28;20041;-47
2022/08/30 09:28:46;;;;;;;4.40;1.80;;;19.80;98.70;;;;;;5064218;28;20120;-51
2022/08/30 09:31:15;;;;;;;10.82;2.03;;;19.80;98.20;;;;;;5053182;28;20487;-49
2022/08/30 09:33:43;;;;;;;8.55;2.30;;;19.80;98.30;;;;;;5053278;28;20413;-51
2022/08/30 09:36:10;;;;;;;8.20;2.20;;;20.00;98.20;;;;;;5054588;28;20037;-49
2022/08/30 09:38:37;;;;;;;11.18;2.10;;;20.00;98.10;;;;;;5057441;28;20041;-49
2022/08/30 09:41:04;;;;;;;11.02;2.67;;;20.10;98.10;;;;;;5054925;28;20041;-49
2022/08/30 09:43:31;;;;;;;5.45;1.92;;;20.20;97.70;;;;;;5059331;28;20394;-50
2022/08/30 09:45:58;;;;;;;10.25;2.13;;;20.30;97.70;;;;;;5069947;28;20041;-48
2022/08/30 09:48:25;;;;;;;6.85;2.00;;;20.40;97.40;;;;;;5054538;28;20044;-51
2022/08/30 09:50:52;;;;;;;8.57;2.08;;;20.50;97.10;;;;;;5058147;28;20045;-49
2022/08/30 09:53:21;;;;;;;10.35;2.58;;;20.60;97.00;;;;;;5064302;28;20044;-53
2022/08/30 09:56:08;;;;;;;5.65;1.98;;;20.70;96.70;;;;;;5059980;28;20495;-48
2022/08/30 09:58:35;;;;;;;7.45;2.15;;;20.70;96.80;;;;;;5060627;28;20060;-49
2022/08/30 10:01:02;;;;;;;10.35;2.42;;;20.80;96.60;;;;;;5061500;28;20035;-49
2022/08/30 10:03:29;;;;;;;7.75;2.50;;;20.90;96.30;;;;;;5057642;28;20545;-53
2022/08/30 10:06:06;;;;;;;11.25;2.10;;;21.00;96.20;;;;;;5056377;28;20491;-49
2022/08/30 10:08:33;;;;;;;7.65;2.50;;;21.00;96.20;;;;;;5045833;28;20041;-49
2022/08/30 10:11:00;;;;;;;8.68;2.22;;;21.10;96.00;;;;;;5051931;28;20045;-49
2022/08/30 10:13:27;;;;;;;9.30;2.30;;;21.20;95.60;;;;;;5064888;28;20041;-52
2022/08/30 10:15:54;;;;;;;6.10;2.10;;;21.10;95.50;;;;;;5064712;28;20043;-51
2022/08/30 10:18:22;;;;;;;5.88;2.03;;;21.00;95.60;;;;;;5052450;28;20029;-49
2022/08/30 10:20:50;;;;;;;8.05;2.28;;;21.10;95.60;;;;;;5054018;28;20074;-50
2022/08/30 10:23:17;;;;;;;7.47;1.90;;;21.10;95.40;;;;;;5061743;28;20045;-50
2022/08/30 10:25:44;;;;;;;8.35;2.20;;;21.10;95.60;;;;;;5053373;28;20040;-51
2022/08/30 10:28:13;;;;;;;9.10;2.40;;;21.20;95.40;;;;;;5056976;28;20043;-48
2022/08/30 10:30:40;;;;;;;5.95;2.28;;;21.30;95.40;;;;;;5058584;28;20048;-48
2022/08/30 10:33:07;;;;;;;6.88;2.22;;;21.30;95.60;;;;;;5055859;28;20041;-48
2022/08/30 10:35:33;;;;;;;6.65;2.45;;;21.30;95.30;;;;;;5062888;28;20093;-54
2022/08/30 10:38:04;;;;;;;6.35;2.13;;;21.30;94.80;;;;;;5054959;28;20047;-48
2022/08/30 10:43:16;;;;;;;;;;;21.30;95.00;;;;;;5057413;28;20060;-47
2022/08/30 10:45:44;;;;;;;9.90;2.13;;;21.20;95.00;;;;;;5069318;28;19974;-47
2022/08/30 10:48:11;;;;;;;7.63;2.10;;;21.20;94.90;;;;;;5068908;28;20194;-50
2022/08/30 10:50:39;;;;;;;9.73;2.25;;;21.20;94.60;;;;;;5056717;28;20152;-53
2022/08/30 10:53:07;;;;;;;7.53;2.17;;;21.30;94.30;;;;;;5056841;28;20484;-51
2022/08/30 10:55:34;;;;;;;8.30;2.10;;;21.30;94.60;;;;;;5059010;28;20048;-50
2022/08/30 10:58:01;;;;;;;7.43;2.20;;;21.40;94.00;;;;;;5067034;28;20118;-51
2022/08/30 11:00:28;;;;;;;5.38;2.00;;;21.40;94.20;;;;;;5056915;28;20049;-50
2022/08/30 11:02:54;;;;;;;9.13;2.20;;;21.40;94.50;;;;;;5071217;28;20055;-49
2022/08/30 11:05:21;;;;;;;7.25;2.20;;;21.50;94.30;;;;;;5059859;28;20056;-49
2022/08/30 11:07:48;;;;;;;7.10;2.00;;;21.50;93.70;;;;;;5060925;28;20078;-49
2022/08/30 11:10:17;;;;;;;8.25;2.20;;;21.30;94.00;;;;;;5057794;28;20072;-51
2022/08/30 11:12:44;;;;;;;8.10;2.58;;;21.40;94.00;;;;;;5060509;28;20033;-49
2022/08/30 11:15:11;;;;;;;7.63;2.53;;;21.50;93.90;;;;;;5058147;28;20051;-51
2022/08/30 11:17:38;;;;;;;7.25;2.33;;;21.60;93.50;;;;;;5053112;28;20041;-48
2022/08/30 11:20:04;;;;;;;8.38;2.00;;;21.80;93.50;;;;;;5059957;28;20043;-50
2022/08/30 11:22:31;;;;;;;8.30;2.25;;;21.90;93.00;;;;;;5058919;28;20041;-49
2022/08/30 11:25:04;;;;;;;9.45;2.33;;;22.10;93.20;;;;;;5058547;28;20136;-51
2022/08/30 11:27:35;;;;;;;8.35;2.15;;;22.30;92.70;;;;;;5068655;28;20048;-52
2022/08/30 11:30:02;;;;;;;5.45;1.88;;;22.50;92.60;;;;;;5055575;28;20553;-51
2022/08/30 11:32:28;;;;;;;10.90;2.15;;;22.70;92.20;;;;;;5053061;28;20040;-49
2022/08/30 11:34:55;;;;;;;7.13;2.10;;;22.80;91.30;;;;;;5058132;28;20048;-50
2022/08/30 11:37:23;;;;;;;8.07;2.00;;;22.90;91.10;;;;;;5061944;28;20269;-54
2022/08/30 11:39:50;;;;;;;8.52;2.17;;;22.70;91.00;;;;;;5059602;28;20047;-48
2022/08/30 11:42:17;;;;;;;5.13;1.75;;;22.70;90.70;;;;;;5056849;28;20044;-50
2022/08/30 11:44:44;;;;;;;5.82;1.85;;;22.70;90.50;;;;;;5058706;28;20551;-51
2022/08/30 11:47:11;;;;;;;6.13;2.00;;;22.70;90.90;;;;;;5057571;28;20029;-49
2022/08/30 11:49:38;;;;;;;7.97;2.08;;;22.80;90.70;;;;;;5062816;28;20041;-48
2022/08/30 11:52:04;;;;;;;6.45;2.20;;;22.80;89.70;;;;;;5060576;28;20044;-51
2022/08/30 11:54:51;;;;;;;6.10;2.15;;;22.90;89.90;;;;;;5071606;28;20055;-49
2022/08/30 11:57:19;;;;;;;5.93;2.00;;;23.00;90.00;;;;;;5070569;28;20483;-52
2022/08/30 11:59:46;;;;;;;5.50;1.98;;;23.20;86.90;;;;;;5061099;28;20391;-51
2022/08/30 12:02:13;;;;;;;6.22;1.73;;;23.30;86.70;;;;;;5057865;28;20041;-52
2022/08/30 12:04:40;;;;;;;4.65;1.90;;;23.40;87.30;;;;;;5056518;28;20048;-52
2022/08/30 12:07:07;;;;;;;6.28;2.05;;;23.30;87.80;;;;;;5070890;28;20476;-48
2022/08/30 12:09:34;;;;;;;4.32;1.65;;;23.20;88.40;;;;;;5068253;28;20074;-49
2022/08/30 12:12:01;;;;;;;6.35;1.95;;;23.10;88.70;;;;;;5060317;28;20052;-50
2022/08/30 12:14:28;;;;;;;6.45;1.67;;;23.10;88.80;;;;;;5058439;28;20095;-53
2022/08/30 12:19:40;;;;;;;6.22;1.83;;;23.10;88.00;;;;;;5055669;28;20039;-53
2022/08/30 12:22:07;;;;;;;8.23;2.00;;;23.10;89.50;;;;;;5065165;28;20032;-52
2022/08/30 12:24:35;;;;;;;6.95;1.73;;;23.20;88.80;;;;;;5065283;28;20128;-48
2022/08/30 12:27:04;;;;;;;7.05;1.77;;;23.30;87.30;;;;;;5056983;28;20033;-49
2022/08/30 12:29:32;;;;;;;6.40;1.90;;;23.30;86.90;;;;;;5065688;28;20036;-48
2022/08/30 12:31:58;;;;;;;7.18;1.80;;;23.20;87.50;;;;;;5056046;28;20381;-50
2022/08/30 12:34:29;;;;;;;7.50;1.60;;;23.20;87.30;;;;;;5055924;28;20492;-50
2022/08/30 12:36:56;;;;;;;4.72;1.65;;;23.20;87.10;;;;;;5076225;28;20047;-47
2022/08/30 12:39:24;;;;;;;7.50;1.80;;;23.20;87.70;;;;;;5073421;28;20083;-48
2022/08/30 12:41:50;;;;;;;4.57;1.63;;;23.20;87.90;;;;;;5054547;28;20055;-47
2022/08/30 12:44:17;;;;;;;6.18;1.67;;;23.10;86.40;;;;;;5055555;28;20507;-49
2022/08/30 12:46:44;;;;;;;5.07;1.58;;;23.00;86.80;;;;;;5060429;28;20072;-49
2022/08/30 12:49:11;;;;;;;6.13;1.75;;;23.00;86.50;;;;;;5058346;28;20488;-48
2022/08/30 12:51:38;;;;;;;9.07;1.75;;;22.90;86.70;;;;;;5060999;28;20472;-51
2022/08/30 12:54:06;;;;;;;5.25;1.80;;;22.90;86.30;;;;;;5066612;28;20033;-48
2022/08/30 12:56:33;;;;;;;8.05;1.80;;;22.80;85.90;;;;;;5072886;28;20060;-51
2022/08/30 12:59:15;;;;;;;9.48;1.80;;;22.90;86.50;;;;;;5056592;28;20091;-47